sensor_id;sensor_type;location;lat;lon;timestamp;temperature;humidity
21622;DHT22;10973;46.706;12.340;2022-09-09T15:56:38;16.10;99.90
21622;DHT22;10973;46.706;12.340;2022-09-09T15:59:07;15.90;99.90
21622;DHT22;10973;46.706;12.340;2022-09-09T16:01:37;15.70;99.90
21622;DHT22;10973;46.706;12.340;2022-09-09T16:04:05;15.50;99.90
21622;DHT22;10973;46.706;12.340;2022-09-09T16:06:32;15.30;99.90
21622;DHT22;10973;46.706;12.340;2022-09-09T16:09:02;15.20;99.90
21622;DHT22;10973;46.706;12.340;2022-09-09T16:11:36;15.00;99.90
21622;DHT22;10973;46.706;12.340;2022-09-09T16:14:05;14.90;99.90
21622;DHT22;10973;46.706;12.340;2022-09-09T16:16:32;14.70;99.90
21622;DHT22;10973;46.706;12.340;2022-09-09T16:19:04;14.60;99.90
21622;DHT22;10973;46.706;12.340;2022-09-09T16:21:39;14.60;99.90
21622;DHT22;10973;46.706;12.340;2022-09-09T16:24:10;14.50;99.90
21622;DHT22;10973;46.706;12.340;2022-09-09T16:26:42;14.40;99.90
21622;DHT22;10973;46.706;12.340;2022-09-09T16:29:12;14.40;99.90
21622;DHT22;10973;46.706;12.340;2022-09-09T16:31:41;14.30;99.90
21622;DHT22;10973;46.706;12.340;2022-09-09T16:34:09;14.30;99.90
21622;DHT22;10973;46.706;12.340;2022-09-09T16:36:40;14.30;99.90
21622;DHT22;10973;46.706;12.340;2022-09-09T16:39:11;14.20;99.90
21622;DHT22;10973;46.706;12.340;2022-09-09T16:41:43;14.10;99.90
21622;DHT22;10973;46.706;12.340;2022-09-09T16:44:13;14.00;99.90
21622;DHT22;10973;46.706;12.340;2022-09-09T16:46:47;14.00;99.90
21622;DHT22;10973;46.706;12.340;2022-09-09T16:49:16;13.80;99.90
21622;DHT22;10973;46.706;12.340;2022-09-09T16:51:50;13.80;99.90
21622;DHT22;10973;46.706;12.340;2022-09-09T16:54:17;13.80;99.90
21622;DHT22;10973;46.706;12.340;2022-09-09T16:56:46;13.90;99.90
21622;DHT22;10973;46.706;12.340;2022-09-09T16:59:17;13.80;99.90
21622;DHT22;10973;46.706;12.340;2022-09-09T17:01:50;13.80;99.90
21622;DHT22;10973;46.706;12.340;2022-09-09T17:04:24;13.70;99.90
21622;DHT22;10973;46.706;12.340;2022-09-09T17:06:54;13.70;99.90
21622;DHT22;10973;46.706;12.340;2022-09-09T17:09:23;13.60;99.90
21622;DHT22;10973;46.706;12.340;2022-09-09T17:11:51;13.60;99.90
21622;DHT22;10973;46.706;12.340;2022-09-09T17:14:21;13.50;99.90
21622;DHT22;10973;46.706;12.340;2022-09-09T17:16:49;13.50;99.90
21622;DHT22;10973;46.706;12.340;2022-09-09T17:19:16;13.40;99.90
21622;DHT22;10973;46.706;12.340;2022-09-09T17:21:44;13.40;99.90
21622;DHT22;10973;46.706;12.340;2022-09-09T17:24:31;13.40;99.90
21622;DHT22;10973;46.706;12.340;2022-09-09T17:26:58;13.50;99.90
21622;DHT22;10973;46.706;12.340;2022-09-09T17:29:26;13.50;99.90
21622;DHT22;10973;46.706;12.340;2022-09-09T17:31:53;13.40;99.90
21622;DHT22;10973;46.706;12.340;2022-09-09T17:34:21;13.30;99.90
21622;DHT22;10973;46.706;12.340;2022-09-09T17:36:48;13.30;99.90
21622;DHT22;10973;46.706;12.340;2022-09-09T17:39:15;13.20;99.90
21622;DHT22;10973;46.706;12.340;2022-09-09T17:41:43;13.10;99.90
21622;DHT22;10973;46.706;12.340;2022-09-09T17:46:56;13.10;99.90
21622;DHT22;10973;46.706;12.340;2022-09-09T17:49:23;13.10;99.90
21622;DHT22;10973;46.706;12.340;2022-09-09T17:51:51;13.10;99.90
21622;DHT22;10973;46.706;12.340;2022-09-09T17:54:19;13.00;99.90
21622;DHT22;10973;46.706;12.340;2022-09-09T17:56:48;13.00;99.90
21622;DHT22;10973;46.706;12.340;2022-09-09T17:59:16;12.90;99.90
21622;DHT22;10973;46.706;12.340;2022-09-09T18:01:46;12.90;99.90
21622;DHT22;10973;46.706;12.340;2022-09-09T18:04:15;12.90;99.90
21622;DHT22;10973;46.706;12.340;2022-09-09T18:06:49;12.90;99.90
21622;DHT22;10973;46.706;12.340;2022-09-09T18:09:21;12.80;99.90
21622;DHT22;10973;46.706;12.340;2022-09-09T18:11:52;12.70;99.90
21622;DHT22;10973;46.706;12.340;2022-09-09T18:14:24;12.60;99.90
21622;DHT22;10973;46.706;12.340;2022-09-09T18:16:53;12.60;99.90
21622;DHT22;10973;46.706;12.340;2022-09-09T18:19:23;12.60;99.90
21622;DHT22;10973;46.706;12.340;2022-09-09T18:21:52;12.60;99.90
21622;DHT22;10973;46.706;12.340;2022-09-09T18:24:24;12.60;99.90
21622;DHT22;10973;46.706;12.340;2022-09-09T18:26:51;12.50;99.90
21622;DHT22;10973;46.706;12.340;2022-09-09T18:29:21;12.40;99.90
21622;DHT22;10973;46.706;12.340;2022-09-09T18:31:50;12.30;99.90
21622;DHT22;10973;46.706;12.340;2022-09-09T18:34:20;12.30;99.90
21622;DHT22;10973;46.706;12.340;2022-09-09T18:36:51;12.30;99.90
21622;DHT22;10973;46.706;12.340;2022-09-09T18:39:22;12.20;99.90
21622;DHT22;10973;46.706;12.340;2022-09-09T18:41:54;12.10;99.90
21622;DHT22;10973;46.706;12.340;2022-09-09T18:44:32;12.00;99.90
21622;DHT22;10973;46.706;12.340;2022-09-09T18:47:01;12.00;99.90
21622;DHT22;10973;46.706;12.340;2022-09-09T18:49:28;12.10;99.90
21622;DHT22;10973;46.706;12.340;2022-09-09T18:51:56;12.00;99.90
21622;DHT22;10973;46.706;12.340;2022-09-09T18:54:26;11.90;99.90
21622;DHT22;10973;46.706;12.340;2022-09-09T18:56:56;11.80;99.90
21622;DHT22;10973;46.706;12.340;2022-09-09T18:59:23;11.80;99.90
21622;DHT22;10973;46.706;12.340;2022-09-09T19:01:52;11.80;99.90
21622;DHT22;10973;46.706;12.340;2022-09-09T19:04:22;11.90;99.90
21622;DHT22;10973;46.706;12.340;2022-09-09T19:06:50;11.80;99.90
21622;DHT22;10973;46.706;12.340;2022-09-09T19:09:19;11.80;99.90
21622;DHT22;10973;46.706;12.340;2022-09-09T19:11:48;11.70;99.90
21622;DHT22;10973;46.706;12.340;2022-09-09T19:14:18;11.60;99.90
21622;DHT22;10973;46.706;12.340;2022-09-09T19:16:46;11.50;99.90
21622;DHT22;10973;46.706;12.340;2022-09-09T19:19:39;11.50;99.90
21622;DHT22;10973;46.706;12.340;2022-09-09T19:22:06;11.50;99.90
21622;DHT22;10973;46.706;12.340;2022-09-09T19:24:36;11.50;99.90
21622;DHT22;10973;46.706;12.340;2022-09-09T19:27:13;11.50;99.90
21622;DHT22;10973;46.706;12.340;2022-09-09T19:29:40;11.50;99.90
21622;DHT22;10973;46.706;12.340;2022-09-09T19:32:07;11.40;99.90
21622;DHT22;10973;46.706;12.340;2022-09-09T19:34:54;11.50;99.90
21622;DHT22;10973;46.706;12.340;2022-09-09T19:37:22;11.40;99.90
21622;DHT22;10973;46.706;12.340;2022-09-09T19:39:49;11.50;99.90
21622;DHT22;10973;46.706;12.340;2022-09-09T19:42:17;11.60;99.90
21622;DHT22;10973;46.706;12.340;2022-09-09T19:44:44;11.60;99.90
21622;DHT22;10973;46.706;12.340;2022-09-09T19:47:12;11.60;99.90
21622;DHT22;10973;46.706;12.340;2022-09-09T19:49:39;11.60;99.90
21622;DHT22;10973;46.706;12.340;2022-09-09T19:52:12;11.60;99.90
21622;DHT22;10973;46.706;12.340;2022-09-09T19:54:39;11.50;99.90
21622;DHT22;10973;46.706;12.340;2022-09-09T19:57:06;11.50;99.90
21622;DHT22;10973;46.706;12.340;2022-09-09T19:59:33;11.50;99.90
21622;DHT22;10973;46.706;12.340;2022-09-09T20:02:01;11.50;99.90
21622;DHT22;10973;46.706;12.340;2022-09-09T20:04:28;11.50;99.90
21622;DHT22;10973;46.706;12.340;2022-09-09T20:06:55;11.40;99.90
21622;DHT22;10973;46.706;12.340;2022-09-09T20:09:23;11.50;99.90
21622;DHT22;10973;46.706;12.340;2022-09-09T20:11:50;11.50;99.90
21622;DHT22;10973;46.706;12.340;2022-09-09T20:14:17;11.40;99.90
21622;DHT22;10973;46.706;12.340;2022-09-09T20:16:45;11.30;99.90
21622;DHT22;10973;46.706;12.340;2022-09-09T20:19:13;11.30;99.90
21622;DHT22;10973;46.706;12.340;2022-09-09T20:21:43;11.30;99.90
21622;DHT22;10973;46.706;12.340;2022-09-09T20:24:15;11.40;99.90
21622;DHT22;10973;46.706;12.340;2022-09-09T20:26:46;11.50;99.90
21622;DHT22;10973;46.706;12.340;2022-09-09T20:29:16;11.40;99.90
21622;DHT22;10973;46.706;12.340;2022-09-09T20:31:46;11.40;99.90
21622;DHT22;10973;46.706;12.340;2022-09-09T20:34:17;11.40;99.90
21622;DHT22;10973;46.706;12.340;2022-09-09T20:36:46;11.40;99.90
21622;DHT22;10973;46.706;12.340;2022-09-09T20:39:15;11.40;99.90
21622;DHT22;10973;46.706;12.340;2022-09-09T20:41:45;11.40;99.90
21622;DHT22;10973;46.706;12.340;2022-09-09T20:44:15;11.40;99.90
21622;DHT22;10973;46.706;12.340;2022-09-09T20:46:45;11.40;99.90
21622;DHT22;10973;46.706;12.340;2022-09-09T20:49:16;11.30;99.90
21622;DHT22;10973;46.706;12.340;2022-09-09T20:51:45;11.40;99.90
21622;DHT22;10973;46.706;12.340;2022-09-09T20:54:17;11.40;99.90
21622;DHT22;10973;46.706;12.340;2022-09-09T20:56:46;11.40;99.90
21622;DHT22;10973;46.706;12.340;2022-09-09T20:59:16;11.40;99.90
21622;DHT22;10973;46.706;12.340;2022-09-09T21:01:47;11.40;99.90
21622;DHT22;10973;46.706;12.340;2022-09-09T21:04:17;11.40;99.90
21622;DHT22;10973;46.706;12.340;2022-09-09T21:06:46;11.40;99.90
21622;DHT22;10973;46.706;12.340;2022-09-09T21:09:14;11.40;99.90
21622;DHT22;10973;46.706;12.340;2022-09-09T21:11:42;11.40;99.90
21622;DHT22;10973;46.706;12.340;2022-09-09T21:14:09;11.40;99.90
21622;DHT22;10973;46.706;12.340;2022-09-09T21:16:37;11.30;99.90
21622;DHT22;10973;46.706;12.340;2022-09-09T21:19:04;11.40;99.90
21622;DHT22;10973;46.706;12.340;2022-09-09T21:21:31;11.30;99.90
21622;DHT22;10973;46.706;12.340;2022-09-09T21:23:58;11.30;99.90
21622;DHT22;10973;46.706;12.340;2022-09-09T21:26:26;11.30;99.90
21622;DHT22;10973;46.706;12.340;2022-09-09T21:28:53;11.30;99.90
21622;DHT22;10973;46.706;12.340;2022-09-09T21:31:21;11.30;99.90
21622;DHT22;10973;46.706;12.340;2022-09-09T21:33:55;11.20;99.90
21622;DHT22;10973;46.706;12.340;2022-09-09T21:36:23;11.20;99.90
21622;DHT22;10973;46.706;12.340;2022-09-09T21:38:51;11.10;99.90
21622;DHT22;10973;46.706;12.340;2022-09-09T21:41:18;11.10;99.90
21622;DHT22;10973;46.706;12.340;2022-09-09T21:43:50;11.00;99.90
21622;DHT22;10973;46.706;12.340;2022-09-09T21:46:19;11.00;99.90
21622;DHT22;10973;46.706;12.340;2022-09-09T21:48:47;11.00;99.90
21622;DHT22;10973;46.706;12.340;2022-09-09T21:51:15;11.00;99.90
21622;DHT22;10973;46.706;12.340;2022-09-09T21:53:43;11.00;99.90
21622;DHT22;10973;46.706;12.340;2022-09-09T21:56:14;11.00;99.90
